sensor_id;sensor_type;location;lat;lon;timestamp;temperature;humidity
43520;DHT22;46848;51.980;5.918;2024-03-06T00:01:36;9.80;83.80
43520;DHT22;46848;51.980;5.918;2024-03-06T00:04:03;9.70;83.80
43520;DHT22;46848;51.980;5.918;2024-03-06T00:06:29;9.70;83.90
43520;DHT22;46848;51.980;5.918;2024-03-06T00:08:55;9.70;84.00
43520;DHT22;46848;51.980;5.918;2024-03-06T00:11:21;9.70;84.00
43520;DHT22;46848;51.980;5.918;2024-03-06T00:13:47;9.60;84.20
43520;DHT22;46848;51.980;5.918;2024-03-06T00:16:13;9.60;84.20
43520;DHT22;46848;51.980;5.918;2024-03-06T00:18:39;9.60;84.30
43520;DHT22;46848;51.980;5.918;2024-03-06T00:21:05;9.60;84.50
43520;DHT22;46848;51.980;5.918;2024-03-06T00:23:32;9.50;84.60
43520;DHT22;46848;51.980;5.918;2024-03-06T00:25:57;9.50;84.70
43520;DHT22;46848;51.980;5.918;2024-03-06T00:28:23;9.50;84.70
43520;DHT22;46848;51.980;5.918;2024-03-06T00:30:49;9.50;84.60
43520;DHT22;46848;51.980;5.918;2024-03-06T00:33:15;9.50;84.60
43520;DHT22;46848;51.980;5.918;2024-03-06T00:35:41;9.50;84.50
43520;DHT22;46848;51.980;5.918;2024-03-06T00:38:06;9.50;84.40
43520;DHT22;46848;51.980;5.918;2024-03-06T00:40:32;9.60;84.40
43520;DHT22;46848;51.980;5.918;2024-03-06T00:42:58;9.60;84.30
43520;DHT22;46848;51.980;5.918;2024-03-06T00:45:24;9.60;84.30
43520;DHT22;46848;51.980;5.918;2024-03-06T00:47:50;9.50;84.30
43520;DHT22;46848;51.980;5.918;2024-03-06T00:50:15;9.50;84.30
43520;DHT22;46848;51.980;5.918;2024-03-06T00:52:42;9.50;84.40
43520;DHT22;46848;51.980;5.918;2024-03-06T00:55:09;9.40;84.40
43520;DHT22;46848;51.980;5.918;2024-03-06T00:57:35;9.40;84.70
43520;DHT22;46848;51.980;5.918;2024-03-06T01:00:02;9.30;85.00
43520;DHT22;46848;51.980;5.918;2024-03-06T01:02:38;9.30;84.90
43520;DHT22;46848;51.980;5.918;2024-03-06T01:05:04;9.20;85.00
43520;DHT22;46848;51.980;5.918;2024-03-06T01:07:30;9.20;85.20
43520;DHT22;46848;51.980;5.918;2024-03-06T01:09:57;9.20;85.20
43520;DHT22;46848;51.980;5.918;2024-03-06T01:12:25;9.20;85.20
43520;DHT22;46848;51.980;5.918;2024-03-06T01:14:51;9.10;85.10
43520;DHT22;46848;51.980;5.918;2024-03-06T01:17:17;9.20;85.10
43520;DHT22;46848;51.980;5.918;2024-03-06T01:19:42;9.20;85.60
43520;DHT22;46848;51.980;5.918;2024-03-06T01:22:11;9.20;84.90
43520;DHT22;46848;51.980;5.918;2024-03-06T01:24:40;9.20;84.70
43520;DHT22;46848;51.980;5.918;2024-03-06T01:27:05;9.30;84.70
43520;DHT22;46848;51.980;5.918;2024-03-06T01:29:31;9.30;84.50
43520;DHT22;46848;51.980;5.918;2024-03-06T01:31:58;9.30;84.50
43520;DHT22;46848;51.980;5.918;2024-03-06T01:34:23;9.20;84.40
43520;DHT22;46848;51.980;5.918;2024-03-06T01:36:49;9.30;84.40
43520;DHT22;46848;51.980;5.918;2024-03-06T01:39:14;9.20;84.20
43520;DHT22;46848;51.980;5.918;2024-03-06T01:41:50;9.20;84.20
43520;DHT22;46848;51.980;5.918;2024-03-06T01:44:17;9.20;84.20
43520;DHT22;46848;51.980;5.918;2024-03-06T01:46:46;9.20;84.20
43520;DHT22;46848;51.980;5.918;2024-03-06T01:49:15;9.20;84.20
43520;DHT22;46848;51.980;5.918;2024-03-06T01:51:43;9.20;84.20
43520;DHT22;46848;51.980;5.918;2024-03-06T01:54:10;9.20;84.10
43520;DHT22;46848;51.980;5.918;2024-03-06T01:56:39;9.20;84.10
43520;DHT22;46848;51.980;5.918;2024-03-06T01:59:08;9.10;84.10
43520;DHT22;46848;51.980;5.918;2024-03-06T02:01:35;9.10;84.10
43520;DHT22;46848;51.980;5.918;2024-03-06T02:04:00;9.00;84.10
43520;DHT22;46848;51.980;5.918;2024-03-06T02:06:26;9.00;84.10
43520;DHT22;46848;51.980;5.918;2024-03-06T02:08:52;9.00;84.10
43520;DHT22;46848;51.980;5.918;2024-03-06T02:11:18;9.00;84.10
43520;DHT22;46848;51.980;5.918;2024-03-06T02:13:43;9.00;84.10
43520;DHT22;46848;51.980;5.918;2024-03-06T02:16:10;9.00;84.10
43520;DHT22;46848;51.980;5.918;2024-03-06T02:18:36;9.00;84.10
43520;DHT22;46848;51.980;5.918;2024-03-06T02:21:02;9.00;84.10
43520;DHT22;46848;51.980;5.918;2024-03-06T02:23:28;9.00;84.00
43520;DHT22;46848;51.980;5.918;2024-03-06T02:25:53;8.90;84.00
43520;DHT22;46848;51.980;5.918;2024-03-06T02:28:19;8.90;84.00
43520;DHT22;46848;51.980;5.918;2024-03-06T02:30:45;8.80;84.00
43520;DHT22;46848;51.980;5.918;2024-03-06T02:33:10;8.80;84.00
43520;DHT22;46848;51.980;5.918;2024-03-06T02:35:36;8.80;84.10
43520;DHT22;46848;51.980;5.918;2024-03-06T02:38:03;8.80;84.00
43520;DHT22;46848;51.980;5.918;2024-03-06T02:40:30;8.70;84.00
43520;DHT22;46848;51.980;5.918;2024-03-06T02:42:56;8.70;83.90
43520;DHT22;46848;51.980;5.918;2024-03-06T02:45:22;8.70;84.00
43520;DHT22;46848;51.980;5.918;2024-03-06T02:47:47;8.70;84.00
43520;DHT22;46848;51.980;5.918;2024-03-06T02:50:14;8.70;83.90
43520;DHT22;46848;51.980;5.918;2024-03-06T02:52:40;8.70;83.80
43520;DHT22;46848;51.980;5.918;2024-03-06T02:55:06;8.70;83.80
43520;DHT22;46848;51.980;5.918;2024-03-06T02:57:32;8.70;83.80
43520;DHT22;46848;51.980;5.918;2024-03-06T02:59:58;8.70;83.90
43520;DHT22;46848;51.980;5.918;2024-03-06T03:02:25;8.60;83.70
43520;DHT22;46848;51.980;5.918;2024-03-06T03:04:51;8.60;83.70
43520;DHT22;46848;51.980;5.918;2024-03-06T03:07:20;8.70;83.70
43520;DHT22;46848;51.980;5.918;2024-03-06T03:09:46;8.60;83.70
43520;DHT22;46848;51.980;5.918;2024-03-06T03:12:13;8.50;83.60
43520;DHT22;46848;51.980;5.918;2024-03-06T03:14:40;8.50;83.70
43520;DHT22;46848;51.980;5.918;2024-03-06T03:17:06;8.50;83.60
43520;DHT22;46848;51.980;5.918;2024-03-06T03:19:32;8.50;83.60
43520;DHT22;46848;51.980;5.918;2024-03-06T03:21:58;8.50;83.60
43520;DHT22;46848;51.980;5.918;2024-03-06T03:24:24;8.60;83.60
43520;DHT22;46848;51.980;5.918;2024-03-06T03:26:51;8.60;83.60
43520;DHT22;46848;51.980;5.918;2024-03-06T03:29:17;8.50;83.50
43520;DHT22;46848;51.980;5.918;2024-03-06T03:31:43;8.50;83.50
43520;DHT22;46848;51.980;5.918;2024-03-06T03:34:08;8.50;83.40
43520;DHT22;46848;51.980;5.918;2024-03-06T03:36:35;8.40;83.40
43520;DHT22;46848;51.980;5.918;2024-03-06T03:39:00;8.40;83.50
43520;DHT22;46848;51.980;5.918;2024-03-06T03:41:26;8.40;83.60
43520;DHT22;46848;51.980;5.918;2024-03-06T03:43:52;8.30;83.70
43520;DHT22;46848;51.980;5.918;2024-03-06T03:46:17;8.30;83.70
43520;DHT22;46848;51.980;5.918;2024-03-06T03:48:43;8.20;84.00
43520;DHT22;46848;51.980;5.918;2024-03-06T03:51:09;8.20;83.70
43520;DHT22;46848;51.980;5.918;2024-03-06T03:53:35;8.20;83.70
43520;DHT22;46848;51.980;5.918;2024-03-06T03:56:01;8.20;83.80
43520;DHT22;46848;51.980;5.918;2024-03-06T03:58:27;8.20;83.80
43520;DHT22;46848;51.980;5.918;2024-03-06T04:00:52;8.20;83.70
43520;DHT22;46848;51.980;5.918;2024-03-06T04:03:19;8.20;83.60
43520;DHT22;46848;51.980;5.918;2024-03-06T04:05:47;8.20;83.50
43520;DHT22;46848;51.980;5.918;2024-03-06T04:08:12;8.10;83.50
43520;DHT22;46848;51.980;5.918;2024-03-06T04:10:38;8.10;83.40
43520;DHT22;46848;51.980;5.918;2024-03-06T04:13:04;8.10;83.30
43520;DHT22;46848;51.980;5.918;2024-03-06T04:15:29;8.10;83.30
43520;DHT22;46848;51.980;5.918;2024-03-06T04:17:56;8.00;83.30
43520;DHT22;46848;51.980;5.918;2024-03-06T04:20:22;8.10;83.40
43520;DHT22;46848;51.980;5.918;2024-03-06T04:22:47;8.00;83.30
43520;DHT22;46848;51.980;5.918;2024-03-06T04:25:15;8.00;83.30
43520;DHT22;46848;51.980;5.918;2024-03-06T04:27:41;8.00;83.40
43520;DHT22;46848;51.980;5.918;2024-03-06T04:30:07;7.90;83.20
43520;DHT22;46848;51.980;5.918;2024-03-06T04:32:33;7.90;83.30
43520;DHT22;46848;51.980;5.918;2024-03-06T04:34:58;7.90;83.30
43520;DHT22;46848;51.980;5.918;2024-03-06T04:37:24;7.80;83.30
43520;DHT22;46848;51.980;5.918;2024-03-06T04:39:52;7.80;83.40
43520;DHT22;46848;51.980;5.918;2024-03-06T04:42:17;7.80;83.50
43520;DHT22;46848;51.980;5.918;2024-03-06T04:44:45;7.80;83.50
43520;DHT22;46848;51.980;5.918;2024-03-06T04:47:11;7.80;83.50
43520;DHT22;46848;51.980;5.918;2024-03-06T04:49:37;7.80;83.50
43520;DHT22;46848;51.980;5.918;2024-03-06T04:52:02;7.80;83.50
43520;DHT22;46848;51.980;5.918;2024-03-06T04:54:28;7.80;83.40
43520;DHT22;46848;51.980;5.918;2024-03-06T04:56:55;7.80;83.30
43520;DHT22;46848;51.980;5.918;2024-03-06T04:59:20;7.80;83.30
43520;DHT22;46848;51.980;5.918;2024-03-06T05:01:46;7.80;83.40
43520;DHT22;46848;51.980;5.918;2024-03-06T05:04:11;7.70;83.40
43520;DHT22;46848;51.980;5.918;2024-03-06T05:06:37;7.70;83.40
43520;DHT22;46848;51.980;5.918;2024-03-06T05:09:03;7.70;83.40
43520;DHT22;46848;51.980;5.918;2024-03-06T05:11:30;7.70;83.50
43520;DHT22;46848;51.980;5.918;2024-03-06T05:13:57;7.70;83.50
43520;DHT22;46848;51.980;5.918;2024-03-06T05:16:23;7.70;83.60
43520;DHT22;46848;51.980;5.918;2024-03-06T05:18:49;7.70;83.60
43520;DHT22;46848;51.980;5.918;2024-03-06T05:21:15;7.60;83.80
43520;DHT22;46848;51.980;5.918;2024-03-06T05:23:41;7.50;83.90
43520;DHT22;46848;51.980;5.918;2024-03-06T05:26:06;7.50;84.10
43520;DHT22;46848;51.980;5.918;2024-03-06T05:28:33;7.50;84.20
43520;DHT22;46848;51.980;5.918;2024-03-06T05:30:59;7.40;84.30
43520;DHT22;46848;51.980;5.918;2024-03-06T05:33:26;7.40;84.20
43520;DHT22;46848;51.980;5.918;2024-03-06T05:35:53;7.40;84.20
43520;DHT22;46848;51.980;5.918;2024-03-06T05:38:19;7.40;84.30
43520;DHT22;46848;51.980;5.918;2024-03-06T05:40:44;7.40;84.30
43520;DHT22;46848;51.980;5.918;2024-03-06T05:43:11;7.30;84.40
43520;DHT22;46848;51.980;5.918;2024-03-06T05:45:36;7.30;84.60
43520;DHT22;46848;51.980;5.918;2024-03-06T05:48:02;7.20;84.80
43520;DHT22;46848;51.980;5.918;2024-03-06T05:50:29;7.10;84.90
43520;DHT22;46848;51.980;5.918;2024-03-06T05:52:57;7.10;84.90
43520;DHT22;46848;51.980;5.918;2024-03-06T05:55:22;7.10;85.00
43520;DHT22;46848;51.980;5.918;2024-03-06T05:57:48;7.10;85.20
43520;DHT22;46848;51.980;5.918;2024-03-06T06:00:14;7.00;85.40
43520;DHT22;46848;51.980;5.918;2024-03-06T06:02:40;7.00;85.30
43520;DHT22;46848;51.980;5.918;2024-03-06T06:05:06;7.00;85.20
43520;DHT22;46848;51.980;5.918;2024-03-06T06:07:32;7.00;85.20
43520;DHT22;46848;51.980;5.918;2024-03-06T06:09:58;7.00;85.20
43520;DHT22;46848;51.980;5.918;2024-03-06T06:12:23;7.00;85.30
43520;DHT22;46848;51.980;5.918;2024-03-06T06:14:49;7.00;85.50
43520;DHT22;46848;51.980;5.918;2024-03-06T06:17:14;6.90;85.30
43520;DHT22;46848;51.980;5.918;2024-03-06T06:19:42;6.90;85.80
43520;DHT22;46848;51.980;5.918;2024-03-06T06:22:09;6.90;85.80
43520;DHT22;46848;51.980;5.918;2024-03-06T06:24:38;6.80;85.90
43520;DHT22;46848;51.980;5.918;2024-03-06T06:27:04;6.80;86.00
43520;DHT22;46848;51.980;5.918;2024-03-06T06:29:30;6.80;85.90
43520;DHT22;46848;51.980;5.918;2024-03-06T06:31:56;6.80;86.10
43520;DHT22;46848;51.980;5.918;2024-03-06T06:34:22;6.80;86.10
43520;DHT22;46848;51.980;5.918;2024-03-06T06:36:48;6.70;86.20
43520;DHT22;46848;51.980;5.918;2024-03-06T06:39:14;6.70;86.30
43520;DHT22;46848;51.980;5.918;2024-03-06T06:41:39;6.70;86.40
43520;DHT22;46848;51.980;5.918;2024-03-06T06:44:05;6.80;86.30
43520;DHT22;46848;51.980;5.918;2024-03-06T06:46:30;6.70;86.50
43520;DHT22;46848;51.980;5.918;2024-03-06T06:48:56;6.80;86.10
43520;DHT22;46848;51.980;5.918;2024-03-06T06:51:22;6.80;86.10
43520;DHT22;46848;51.980;5.918;2024-03-06T06:53:48;6.80;86.00
43520;DHT22;46848;51.980;5.918;2024-03-06T06:56:14;6.90;86.10
43520;DHT22;46848;51.980;5.918;2024-03-06T06:58:40;6.80;86.10
43520;DHT22;46848;51.980;5.918;2024-03-06T07:01:08;6.80;86.20
43520;DHT22;46848;51.980;5.918;2024-03-06T07:03:33;6.80;86.20
43520;DHT22;46848;51.980;5.918;2024-03-06T07:05:59;6.80;86.20
43520;DHT22;46848;51.980;5.918;2024-03-06T07:08:24;6.80;86.40
43520;DHT22;46848;51.980;5.918;2024-03-06T07:10:50;6.80;86.20
43520;DHT22;46848;51.980;5.918;2024-03-06T07:13:18;6.80;86.60
43520;DHT22;46848;51.980;5.918;2024-03-06T07:15:44;6.80;86.50
43520;DHT22;46848;51.980;5.918;2024-03-06T07:18:09;6.80;86.40
43520;DHT22;46848;51.980;5.918;2024-03-06T07:20:35;6.80;86.40
43520;DHT22;46848;51.980;5.918;2024-03-06T07:23:01;6.90;86.40
43520;DHT22;46848;51.980;5.918;2024-03-06T07:25:26;6.90;86.40
43520;DHT22;46848;51.980;5.918;2024-03-06T07:27:52;6.90;86.30
43520;DHT22;46848;51.980;5.918;2024-03-06T07:30:18;6.90;86.40
43520;DHT22;46848;51.980;5.918;2024-03-06T07:32:43;7.00;86.20
43520;DHT22;46848;51.980;5.918;2024-03-06T07:35:09;7.00;86.20
43520;DHT22;46848;51.980;5.918;2024-03-06T07:37:35;7.00;86.10
43520;DHT22;46848;51.980;5.918;2024-03-06T07:40:01;7.10;86.00
43520;DHT22;46848;51.980;5.918;2024-03-06T07:42:26;7.10;86.10
43520;DHT22;46848;51.980;5.918;2024-03-06T07:44:52;7.10;85.90
43520;DHT22;46848;51.980;5.918;2024-03-06T07:47:18;7.20;85.90
43520;DHT22;46848;51.980;5.918;2024-03-06T07:49:44;7.30;85.80
43520;DHT22;46848;51.980;5.918;2024-03-06T07:52:10;7.30;85.70
43520;DHT22;46848;51.980;5.918;2024-03-06T07:54:36;7.30;85.70
43520;DHT22;46848;51.980;5.918;2024-03-06T07:57:01;7.30;85.80
43520;DHT22;46848;51.980;5.918;2024-03-06T07:59:27;7.40;85.90
43520;DHT22;46848;51.980;5.918;2024-03-06T08:01:53;7.50;85.90
43520;DHT22;46848;51.980;5.918;2024-03-06T08:04:18;7.60;85.90
43520;DHT22;46848;51.980;5.918;2024-03-06T08:06:44;7.70;85.90
43520;DHT22;46848;51.980;5.918;2024-03-06T08:09:09;7.80;85.80
43520;DHT22;46848;51.980;5.918;2024-03-06T08:11:36;7.90;85.70
43520;DHT22;46848;51.980;5.918;2024-03-06T08:14:02;8.00;85.70
43520;DHT22;46848;51.980;5.918;2024-03-06T08:16:27;8.10;85.50
43520;DHT22;46848;51.980;5.918;2024-03-06T08:18:54;8.10;85.40
43520;DHT22;46848;51.980;5.918;2024-03-06T08:21:20;8.20;85.30
43520;DHT22;46848;51.980;5.918;2024-03-06T08:23:46;8.20;85.40
43520;DHT22;46848;51.980;5.918;2024-03-06T08:26:13;8.30;85.50
43520;DHT22;46848;51.980;5.918;2024-03-06T08:28:38;8.40;85.50
43520;DHT22;46848;51.980;5.918;2024-03-06T08:31:04;8.50;85.50
43520;DHT22;46848;51.980;5.918;2024-03-06T08:33:29;8.60;85.30
43520;DHT22;46848;51.980;5.918;2024-03-06T08:35:55;8.60;85.10
43520;DHT22;46848;51.980;5.918;2024-03-06T08:38:20;8.60;85.10
43520;DHT22;46848;51.980;5.918;2024-03-06T08:40:46;8.60;85.10
43520;DHT22;46848;51.980;5.918;2024-03-06T08:43:12;8.70;85.20
43520;DHT22;46848;51.980;5.918;2024-03-06T08:45:38;8.80;85.00
43520;DHT22;46848;51.980;5.918;2024-03-06T08:48:04;8.80;85.00
43520;DHT22;46848;51.980;5.918;2024-03-06T08:50:31;8.80;85.00
43520;DHT22;46848;51.980;5.918;2024-03-06T08:52:56;8.90;85.00
43520;DHT22;46848;51.980;5.918;2024-03-06T08:55:22;9.00;85.00
43520;DHT22;46848;51.980;5.918;2024-03-06T08:57:47;9.00;84.90
43520;DHT22;46848;51.980;5.918;2024-03-06T09:00:13;9.10;85.00
43520;DHT22;46848;51.980;5.918;2024-03-06T09:02:40;9.20;84.80
43520;DHT22;46848;51.980;5.918;2024-03-06T09:05:10;9.20;84.80
43520;DHT22;46848;51.980;5.918;2024-03-06T09:07:36;9.20;85.00
43520;DHT22;46848;51.980;5.918;2024-03-06T09:10:12;9.20;85.10
43520;DHT22;46848;51.980;5.918;2024-03-06T09:12:37;9.20;85.00
43520;DHT22;46848;51.980;5.918;2024-03-06T09:15:04;9.30;84.90
43520;DHT22;46848;51.980;5.918;2024-03-06T09:17:30;9.30;84.80
43520;DHT22;46848;51.980;5.918;2024-03-06T09:19:56;9.30;85.00
43520;DHT22;46848;51.980;5.918;2024-03-06T09:22:21;9.30;85.10
43520;DHT22;46848;51.980;5.918;2024-03-06T09:24:48;9.30;85.10
43520;DHT22;46848;51.980;5.918;2024-03-06T09:27:14;9.30;85.10
43520;DHT22;46848;51.980;5.918;2024-03-06T09:29:40;9.40;85.10
43520;DHT22;46848;51.980;5.918;2024-03-06T09:32:06;9.40;85.10
43520;DHT22;46848;51.980;5.918;2024-03-06T09:34:31;9.50;85.10
43520;DHT22;46848;51.980;5.918;2024-03-06T09:36:57;9.60;85.10
43520;DHT22;46848;51.980;5.918;2024-03-06T09:39:23;9.70;85.00
43520;DHT22;46848;51.980;5.918;2024-03-06T09:41:55;9.70;84.80
43520;DHT22;46848;51.980;5.918;2024-03-06T09:44:22;9.80;84.80
43520;DHT22;46848;51.980;5.918;2024-03-06T09:46:49;9.80;84.70
43520;DHT22;46848;51.980;5.918;2024-03-06T09:49:17;9.80;84.70
43520;DHT22;46848;51.980;5.918;2024-03-06T09:51:44;9.80;84.70
43520;DHT22;46848;51.980;5.918;2024-03-06T09:54:15;9.80;84.70
43520;DHT22;46848;51.980;5.918;2024-03-06T09:56:45;9.90;84.70
43520;DHT22;46848;51.980;5.918;2024-03-06T09:59:12;9.80;84.60
43520;DHT22;46848;51.980;5.918;2024-03-06T10:01:58;9.90;84.80
43520;DHT22;46848;51.980;5.918;2024-03-06T10:04:27;9.90;84.90
43520;DHT22;46848;51.980;5.918;2024-03-06T10:06:55;9.90;84.90
43520;DHT22;46848;51.980;5.918;2024-03-06T10:09:21;9.90;85.00
43520;DHT22;46848;51.980;5.918;2024-03-06T10:11:47;10.00;84.90
43520;DHT22;46848;51.980;5.918;2024-03-06T10:14:13;10.10;84.70
43520;DHT22;46848;51.980;5.918;2024-03-06T10:16:52;10.10;84.60
43520;DHT22;46848;51.980;5.918;2024-03-06T10:19:18;10.20;84.50
43520;DHT22;46848;51.980;5.918;2024-03-06T10:21:47;10.20;84.40
43520;DHT22;46848;51.980;5.918;2024-03-06T10:24:20;10.20;84.40
43520;DHT22;46848;51.980;5.918;2024-03-06T10:26:47;10.20;84.90
43520;DHT22;46848;51.980;5.918;2024-03-06T10:29:17;10.20;84.10
43520;DHT22;46848;51.980;5.918;2024-03-06T10:31:57;10.30;84.10
43520;DHT22;46848;51.980;5.918;2024-03-06T10:34:27;10.30;83.90
43520;DHT22;46848;51.980;5.918;2024-03-06T10:37:00;10.40;83.90
43520;DHT22;46848;51.980;5.918;2024-03-06T10:39:30;10.40;83.80
43520;DHT22;46848;51.980;5.918;2024-03-06T10:41:56;10.60;83.70
43520;DHT22;46848;51.980;5.918;2024-03-06T10:44:23;10.70;83.60
43520;DHT22;46848;51.980;5.918;2024-03-06T10:46:58;10.70;83.50
43520;DHT22;46848;51.980;5.918;2024-03-06T10:49:26;10.80;83.40
43520;DHT22;46848;51.980;5.918;2024-03-06T10:51:57;10.90;83.30
43520;DHT22;46848;51.980;5.918;2024-03-06T10:54:23;11.00;83.10
43520;DHT22;46848;51.980;5.918;2024-03-06T10:56:51;11.20;82.90
43520;DHT22;46848;51.980;5.918;2024-03-06T10:59:20;11.20;82.70
43520;DHT22;46848;51.980;5.918;2024-03-06T11:01:46;11.30;82.40
43520;DHT22;46848;51.980;5.918;2024-03-06T11:04:13;11.30;82.10
43520;DHT22;46848;51.980;5.918;2024-03-06T11:06:40;11.30;81.90
43520;DHT22;46848;51.980;5.918;2024-03-06T11:09:07;11.40;82.00
43520;DHT22;46848;51.980;5.918;2024-03-06T11:11:53;11.50;81.90
43520;DHT22;46848;51.980;5.918;2024-03-06T11:14:23;11.60;81.60
43520;DHT22;46848;51.980;5.918;2024-03-06T11:17:02;11.60;81.40
43520;DHT22;46848;51.980;5.918;2024-03-06T11:19:32;11.60;81.20
43520;DHT22;46848;51.980;5.918;2024-03-06T11:22:17;11.60;81.10
43520;DHT22;46848;51.980;5.918;2024-03-06T11:24:43;11.70;81.10
43520;DHT22;46848;51.980;5.918;2024-03-06T11:27:08;11.80;81.10
43520;DHT22;46848;51.980;5.918;2024-03-06T11:30:04;11.90;81.00
43520;DHT22;46848;51.980;5.918;2024-03-06T11:32:37;12.10;80.70
43520;DHT22;46848;51.980;5.918;2024-03-06T11:35:04;12.20;80.30
43520;DHT22;46848;51.980;5.918;2024-03-06T11:37:33;12.40;80.10
43520;DHT22;46848;51.980;5.918;2024-03-06T11:40:00;12.70;79.90
43520;DHT22;46848;51.980;5.918;2024-03-06T11:42:34;12.90;79.70
43520;DHT22;46848;51.980;5.918;2024-03-06T11:45:16;13.10;79.40
43520;DHT22;46848;51.980;5.918;2024-03-06T11:47:59;13.40;78.60
43520;DHT22;46848;51.980;5.918;2024-03-06T11:50:28;13.50;78.00
43520;DHT22;46848;51.980;5.918;2024-03-06T11:52:54;13.60;77.60
43520;DHT22;46848;51.980;5.918;2024-03-06T11:55:22;13.70;77.40
43520;DHT22;46848;51.980;5.918;2024-03-06T11:57:50;13.80;77.40
43520;DHT22;46848;51.980;5.918;2024-03-06T12:00:16;14.00;77.00
43520;DHT22;46848;51.980;5.918;2024-03-06T12:02:42;14.00;75.30
43520;DHT22;46848;51.980;5.918;2024-03-06T12:05:08;14.10;76.10
43520;DHT22;46848;51.980;5.918;2024-03-06T12:07:48;14.20;76.00
43520;DHT22;46848;51.980;5.918;2024-03-06T12:10:15;14.40;75.80
43520;DHT22;46848;51.980;5.918;2024-03-06T12:12:41;14.50;75.30
43520;DHT22;46848;51.980;5.918;2024-03-06T12:15:10;14.60;75.10
43520;DHT22;46848;51.980;5.918;2024-03-06T12:17:47;14.70;74.90
43520;DHT22;46848;51.980;5.918;2024-03-06T12:20:14;14.80;75.00
43520;DHT22;46848;51.980;5.918;2024-03-06T12:22:53;15.00;74.80
43520;DHT22;46848;51.980;5.918;2024-03-06T12:25:23;15.00;74.60
43520;DHT22;46848;51.980;5.918;2024-03-06T12:27:50;15.10;74.30
43520;DHT22;46848;51.980;5.918;2024-03-06T12:30:22;15.20;74.40
43520;DHT22;46848;51.980;5.918;2024-03-06T12:32:58;15.20;73.70
43520;DHT22;46848;51.980;5.918;2024-03-06T12:35:24;15.40;74.10
43520;DHT22;46848;51.980;5.918;2024-03-06T12:37:50;15.50;74.10
43520;DHT22;46848;51.980;5.918;2024-03-06T12:40:16;15.60;73.40
43520;DHT22;46848;51.980;5.918;2024-03-06T12:42:41;15.80;73.30
43520;DHT22;46848;51.980;5.918;2024-03-06T12:45:09;15.90;72.90
43520;DHT22;46848;51.980;5.918;2024-03-06T12:47:35;16.00;72.10
43520;DHT22;46848;51.980;5.918;2024-03-06T12:50:01;16.00;71.80
43520;DHT22;46848;51.980;5.918;2024-03-06T12:52:26;16.00;71.90
43520;DHT22;46848;51.980;5.918;2024-03-06T12:54:52;16.10;71.80
43520;DHT22;46848;51.980;5.918;2024-03-06T12:57:17;16.20;71.60
43520;DHT22;46848;51.980;5.918;2024-03-06T12:59:43;16.30;71.10
43520;DHT22;46848;51.980;5.918;2024-03-06T13:02:09;16.40;70.70
43520;DHT22;46848;51.980;5.918;2024-03-06T13:04:35;16.40;71.10
43520;DHT22;46848;51.980;5.918;2024-03-06T13:07:00;16.60;70.50
43520;DHT22;46848;51.980;5.918;2024-03-06T13:09:26;16.60;68.70
43520;DHT22;46848;51.980;5.918;2024-03-06T13:11:51;16.70;69.70
43520;DHT22;46848;51.980;5.918;2024-03-06T13:14:17;16.60;68.90
43520;DHT22;46848;51.980;5.918;2024-03-06T13:16:43;16.80;68.60
43520;DHT22;46848;51.980;5.918;2024-03-06T13:19:08;16.70;68.40
43520;DHT22;46848;51.980;5.918;2024-03-06T13:21:36;16.70;68.20
43520;DHT22;46848;51.980;5.918;2024-03-06T13:24:02;16.70;68.10
43520;DHT22;46848;51.980;5.918;2024-03-06T13:26:28;16.70;68.40
43520;DHT22;46848;51.980;5.918;2024-03-06T13:28:54;16.80;67.90
43520;DHT22;46848;51.980;5.918;2024-03-06T13:31:19;16.80;67.40
43520;DHT22;46848;51.980;5.918;2024-03-06T13:33:45;16.80;67.60
43520;DHT22;46848;51.980;5.918;2024-03-06T13:36:10;16.90;67.30
43520;DHT22;46848;51.980;5.918;2024-03-06T13:38:36;16.80;65.60
43520;DHT22;46848;51.980;5.918;2024-03-06T13:41:01;16.90;65.90
43520;DHT22;46848;51.980;5.918;2024-03-06T13:43:28;16.90;66.30
43520;DHT22;46848;51.980;5.918;2024-03-06T13:45:54;16.90;65.20
43520;DHT22;46848;51.980;5.918;2024-03-06T13:48:20;16.90;65.00
43520;DHT22;46848;51.980;5.918;2024-03-06T13:50:46;16.80;63.80
43520;DHT22;46848;51.980;5.918;2024-03-06T13:53:12;16.70;64.70
43520;DHT22;46848;51.980;5.918;2024-03-06T13:55:37;16.70;65.30
43520;DHT22;46848;51.980;5.918;2024-03-06T13:58:03;16.80;65.10
43520;DHT22;46848;51.980;5.918;2024-03-06T14:00:29;16.80;64.20
43520;DHT22;46848;51.980;5.918;2024-03-06T14:02:55;16.70;64.70
43520;DHT22;46848;51.980;5.918;2024-03-06T14:05:21;16.70;64.90
43520;DHT22;46848;51.980;5.918;2024-03-06T14:07:53;16.70;62.70
43520;DHT22;46848;51.980;5.918;2024-03-06T14:10:19;16.60;64.00
43520;DHT22;46848;51.980;5.918;2024-03-06T14:12:47;16.70;64.20
43520;DHT22;46848;51.980;5.918;2024-03-06T14:15:13;16.80;64.20
43520;DHT22;46848;51.980;5.918;2024-03-06T14:17:40;16.90;63.80
43520;DHT22;46848;51.980;5.918;2024-03-06T14:20:06;16.80;64.30
43520;DHT22;46848;51.980;5.918;2024-03-06T14:22:31;16.80;63.10
43520;DHT22;46848;51.980;5.918;2024-03-06T14:24:57;16.90;63.50
43520;DHT22;46848;51.980;5.918;2024-03-06T14:27:23;16.90;62.90
43520;DHT22;46848;51.980;5.918;2024-03-06T14:29:48;16.90;62.90
43520;DHT22;46848;51.980;5.918;2024-03-06T14:32:15;17.00;63.10
43520;DHT22;46848;51.980;5.918;2024-03-06T14:34:43;17.10;63.00
43520;DHT22;46848;51.980;5.918;2024-03-06T14:37:09;17.10;62.90
43520;DHT22;46848;51.980;5.918;2024-03-06T14:39:35;17.20;62.10
43520;DHT22;46848;51.980;5.918;2024-03-06T14:42:01;17.20;62.20
43520;DHT22;46848;51.980;5.918;2024-03-06T14:44:26;17.20;62.40
43520;DHT22;46848;51.980;5.918;2024-03-06T14:46:52;17.30;61.80
43520;DHT22;46848;51.980;5.918;2024-03-06T14:49:18;17.30;61.70
43520;DHT22;46848;51.980;5.918;2024-03-06T14:51:43;17.20;61.40
43520;DHT22;46848;51.980;5.918;2024-03-06T14:54:09;17.20;61.40
43520;DHT22;46848;51.980;5.918;2024-03-06T14:56:35;17.10;61.50
43520;DHT22;46848;51.980;5.918;2024-03-06T14:59:00;17.00;60.00
43520;DHT22;46848;51.980;5.918;2024-03-06T15:01:26;17.00;61.50
43520;DHT22;46848;51.980;5.918;2024-03-06T15:03:53;17.00;62.00
43520;DHT22;46848;51.980;5.918;2024-03-06T15:06:20;17.00;61.70
43520;DHT22;46848;51.980;5.918;2024-03-06T15:08:45;16.90;60.90
43520;DHT22;46848;51.980;5.918;2024-03-06T15:11:11;16.90;61.00
43520;DHT22;46848;51.980;5.918;2024-03-06T15:13:37;16.80;61.30
43520;DHT22;46848;51.980;5.918;2024-03-06T15:16:03;16.80;61.30
43520;DHT22;46848;51.980;5.918;2024-03-06T15:18:31;16.70;60.70
43520;DHT22;46848;51.980;5.918;2024-03-06T15:20:58;16.60;58.50
43520;DHT22;46848;51.980;5.918;2024-03-06T15:23:23;16.40;59.10
43520;DHT22;46848;51.980;5.918;2024-03-06T15:25:49;16.40;59.70
43520;DHT22;46848;51.980;5.918;2024-03-06T15:28:15;16.40;59.50
43520;DHT22;46848;51.980;5.918;2024-03-06T15:30:40;16.40;60.10
43520;DHT22;46848;51.980;5.918;2024-03-06T15:33:06;16.30;60.20
43520;DHT22;46848;51.980;5.918;2024-03-06T15:35:32;16.40;61.00
43520;DHT22;46848;51.980;5.918;2024-03-06T15:37:58;16.40;61.20